Time;durP1;ratioP1;P1;durP2;ratioP2;P2;SDS_P1;SDS_P2;PMS_P1;PMS_P2;Temp;Humidity;BMP_temperature;BMP_pressure;BME280_temperature;BME280_humidity;BME280_pressure;Samples;Min_cycle;Max_cycle;Signal;HPM_P1;HPM_P2
2024/03/13 00:01:12;;;;;;;69.70;16.80;;;;;;;-146.27;98.33;42755.06;5089961;28;20019;-69
2024/03/13 00:03:37;;;;;;;73.25;16.33;;;;;;;-146.27;97.98;42719.25;5083854;28;20539;-72
2024/03/13 00:06:03;;;;;;;66.78;15.65;;;;;;;-146.27;97.27;42635.72;5093958;28;20041;-72
2024/03/13 00:08:29;;;;;;;62.72;15.18;;;;;;;-146.27;97.54;42647.66;5098903;28;20067;-71
2024/03/13 00:10:54;;;;;;;73.78;18.30;;;;;;;-146.27;98.00;42603.91;5103701;27;20050;-71
2024/03/13 00:13:22;;;;;;;74.80;17.27;;;;;;;-146.27;98.76;42584.00;5100859;27;20027;-70
2024/03/13 00:15:47;;;;;;;66.75;15.85;;;;;;;-146.27;98.97;42508.44;5090855;28;20032;-72
2024/03/13 00:18:14;;;;;;;56.75;15.25;;;;;;;-146.27;97.86;42538.28;5082256;28;20392;-70
2024/03/13 00:20:40;;;;;;;62.33;17.35;;;;;;;-146.27;98.23;42428.88;5072747;28;20024;-71
2024/03/13 00:23:06;;;;;;;76.78;18.30;;;;;;;-146.27;98.29;42466.69;5091580;28;20063;-71
2024/03/13 00:25:33;;;;;;;70.75;17.00;;;;;;;-146.27;98.29;42409.00;5095662;28;20071;-73
2024/03/13 00:27:58;;;;;;;62.80;15.10;;;;;;;-146.27;98.01;42387.13;5079761;28;20069;-71
2024/03/13 00:30:25;;;;;;;60.97;15.10;;;;;;;-146.27;98.25;42391.09;5085042;28;20036;-71
2024/03/13 00:32:53;;;;;;;69.20;14.82;;;;;;;-146.27;98.85;42357.28;5094324;28;20035;-71
2024/03/13 00:42:03;;;;;;;72.10;15.93;;;;;;;-146.27;98.36;42363.25;5073907;28;20075;-74
2024/03/13 00:51:12;;;;;;;64.82;15.43;;;;;;;-146.27;97.24;42249.91;5091833;28;20632;-71
2024/03/13 00:53:38;;;;;;;62.90;16.10;;;;;;;-146.27;98.07;42329.47;5084156;28;20593;-71
2024/03/13 00:56:05;;;;;;;47.75;15.30;;;;;;;-146.27;97.54;42224.06;5088426;28;20063;-73
2024/03/13 00:58:30;;;;;;;50.50;16.52;;;;;;;-146.27;97.12;42287.69;5081317;28;20028;-70
2024/03/13 01:00:55;;;;;;;62.92;16.80;;;;;;;-146.27;98.81;42285.72;5090010;28;20054;-69
2024/03/13 01:03:22;;;;;;;62.72;17.55;;;;;;;-146.27;98.13;42220.06;5093173;28;20027;-72
2024/03/13 01:05:48;;;;;;;56.58;16.75;;;;;;;-146.27;97.54;42172.34;5099739;28;20035;-73
2024/03/13 01:08:17;;;;;;;51.03;16.27;;;;;;;-146.27;98.04;42232.00;5079741;28;20051;-75
2024/03/13 01:10:42;;;;;;;62.50;16.95;;;;;;;-146.27;98.34;42198.19;5085400;28;20464;-73
2024/03/13 01:13:08;;;;;;;49.33;16.58;;;;;;;-146.27;98.31;42144.50;5085519;28;20020;-74
2024/03/13 01:15:33;;;;;;;47.10;15.93;;;;;;;-146.27;97.35;42150.47;5084100;28;20024;-76
2024/03/13 01:17:58;;;;;;;69.53;16.52;;;;;;;-146.27;97.91;42114.69;5075677;28;20027;-73
2024/03/13 01:20:24;;;;;;;55.97;16.45;;;;;;;-146.27;98.48;42118.66;5086991;28;20024;-76
2024/03/13 01:22:49;;;;;;;63.75;15.88;;;;;;;-146.27;97.75;42066.97;5079480;28;20028;-75
2024/03/13 01:25:16;;;;;;;55.75;16.02;;;;;;;-146.27;98.13;42156.44;5097186;28;20048;-75
2024/03/13 01:27:45;;;;;;;47.65;16.55;;;;;;;-146.27;98.02;42066.97;5110389;28;20079;-75
2024/03/13 01:30:13;;;;;;;59.00;15.30;;;;;;;-146.27;98.15;42126.63;5093298;28;20047;-75
2024/03/13 01:32:39;;;;;;;54.75;15.43;;;;;;;-146.27;99.33;42138.53;5097298;28;20027;-76
2024/03/13 01:35:06;;;;;;;43.38;16.02;;;;;;;-146.27;98.72;41985.44;5100940;28;20396;-76
2024/03/13 01:40:23;;;;;;;54.40;17.10;;;;;;;-146.27;99.49;42059.00;5084763;28;20038;-75
2024/03/13 01:56:58;;;;;;;;;;;;;;;-146.27;98.23;41868.09;5084734;28;20039;-75
2024/03/13 01:59:35;;;;;;;44.67;16.30;;;;;;;-146.27;97.78;41828.34;5095304;28;19919;-76
2024/03/13 02:04:47;;;;;;;55.38;15.55;;;;;;;-146.27;98.70;41907.88;5093850;28;20162;-76
2024/03/13 02:07:13;;;;;;;57.90;17.08;;;;;;;-146.27;98.34;41884.00;5076452;28;20060;-74
2024/03/13 02:09:39;;;;;;;55.15;17.20;;;;;;;-146.27;98.73;41925.78;5085182;28;20086;-75
2024/03/13 02:12:08;;;;;;;44.97;16.38;;;;;;;-146.27;99.86;41856.19;5087435;28;20055;-76
2024/03/13 02:14:34;;;;;;;53.28;16.98;;;;;;;-146.27;99.41;41760.72;5093658;28;20047;-75
2024/03/13 02:17:00;;;;;;;54.92;16.20;;;;;;;-146.27;99.56;41798.50;5076091;28;20028;-73
2024/03/13 02:19:26;;;;;;;60.15;17.85;;;;;;;-146.27;98.76;41764.72;5095662;28;20447;-71
2024/03/13 02:21:59;;;;;;;43.53;16.45;;;;;;;-146.27;98.47;41760.72;5081773;28;20027;-71
2024/03/13 02:24:24;;;;;;;45.17;15.68;;;;;;;-146.27;98.94;41820.38;5093039;28;20048;-71
2024/03/13 02:26:50;;;;;;;56.55;16.30;;;;;;;-146.27;98.90;41717.00;5075937;28;20035;-71
2024/03/13 02:29:15;;;;;;;64.93;17.70;;;;;;;-146.27;98.07;41717.00;5101055;28;20027;-71
2024/03/13 02:31:41;;;;;;;62.22;16.98;;;;;;;-146.27;98.51;41701.09;5087144;28;20031;-71
2024/03/13 02:34:08;;;;;;;53.22;15.93;;;;;;;-146.27;98.53;41780.63;5098962;28;20044;-73
2024/03/13 02:36:33;;;;;;;61.80;18.65;;;;;;;-146.27;98.50;41699.09;5079149;28;20028;-70
2024/03/13 02:39:00;;;;;;;51.00;17.77;;;;;;;-146.27;98.34;41669.28;5102720;28;20027;-71
2024/03/13 02:41:26;;;;;;;47.13;16.15;;;;;;;-146.27;98.85;41816.41;5080662;28;20055;-70
2024/03/13 02:43:51;;;;;;;61.78;17.48;;;;;;;-146.27;99.01;41750.78;5100662;28;20102;-70
2024/03/13 02:46:16;;;;;;;51.05;15.68;;;;;;;-146.27;98.99;41685.19;5088235;28;20028;-71
2024/03/13 02:48:42;;;;;;;53.22;16.48;;;;;;;-146.27;98.96;41669.28;5080062;28;20471;-71
2024/03/13 02:51:11;;;;;;;56.70;17.77;;;;;;;-146.27;99.40;41621.56;5086560;28;20571;-70
2024/03/13 02:53:38;;;;;;;47.35;17.42;;;;;;;-146.27;98.52;41657.34;5106574;28;20028;-72
2024/03/13 02:56:06;;;;;;;47.25;15.98;;;;;;;-146.27;98.44;41657.34;5088751;28;20035;-72
2024/03/13 02:58:32;;;;;;;34.80;14.95;;;;;;;-146.27;97.79;41653.38;5085347;28;20048;-72
2024/03/13 03:00:58;;;;;;;58.75;16.27;;;;;;;-146.27;97.57;41637.47;5099431;28;20119;-71
2024/03/13 03:03:24;;;;;;;44.40;14.70;;;;;;;-146.27;97.64;41603.66;5089130;28;20058;-74
2024/03/13 03:05:49;;;;;;;41.35;14.90;;;;;;;-146.27;97.86;41653.38;5089291;28;20028;-73
2024/03/13 03:08:15;;;;;;;47.58;15.93;;;;;;;-146.27;97.57;41651.38;5092133;28;20066;-71
2024/03/13 03:10:40;;;;;;;66.45;15.15;;;;;;;-146.27;97.30;41623.53;5090300;28;20119;-69
2024/03/13 03:13:08;;;;;;;44.17;13.98;;;;;;;-146.27;97.21;41629.50;5100746;28;20118;-72
2024/03/13 03:15:34;;;;;;;52.95;13.30;;;;;;;-146.27;97.57;41655.34;5099746;28;20028;-71
2024/03/13 03:18:00;;;;;;;37.10;11.32;;;;;;;-146.27;97.99;41756.75;5084349;28;20073;-70
2024/03/13 03:20:26;;;;;;;47.50;12.60;;;;;;;-146.27;99.33;41742.84;5082756;28;20461;-71
2024/03/13 03:22:53;;;;;;;47.22;11.70;;;;;;;-146.27;99.18;41625.53;5087264;28;20059;-72
2024/03/13 03:25:18;;;;;;;43.40;11.20;;;;;;;-146.27;98.61;41617.56;5095486;28;20044;-72
2024/03/13 03:27:44;;;;;;;48.97;11.13;;;;;;;-146.27;97.64;41561.91;5078751;28;20062;-71
2024/03/13 03:30:11;;;;;;;39.67;10.95;;;;;;;-146.27;97.51;41641.44;5096579;28;20103;-71
2024/03/13 03:32:38;;;;;;;40.92;10.15;;;;;;;-146.27;97.72;41621.56;5098012;28;20036;-71
2024/03/13 03:35:06;;;;;;;49.67;9.68;;;;;;;-146.27;98.56;41738.88;5091060;28;20016;-70
2024/03/13 03:37:32;;;;;;;44.05;10.43;;;;;;;-146.27;98.44;41583.78;5083969;28;20142;-71
2024/03/13 03:39:57;;;;;;;33.90;9.63;;;;;;;-146.27;98.04;41599.69;5091557;28;20516;-71
2024/03/13 03:42:24;;;;;;;38.92;9.20;;;;;;;-146.27;98.93;41665.28;5091508;28;20483;-71
2024/03/13 03:44:50;;;;;;;33.80;9.23;;;;;;;-146.27;98.74;41555.94;5103921;28;20063;-71
2024/03/13 03:47:15;;;;;;;48.55;8.88;;;;;;;-146.27;98.04;41530.09;5072250;28;20060;-71
2024/03/13 03:49:41;;;;;;;35.08;8.27;;;;;;;-146.27;98.63;41637.47;5072401;28;20025;-70
2024/03/13 03:52:07;;;;;;;43.33;10.35;;;;;;;-146.27;98.58;41593.72;5082311;28;20024;-73
2024/03/13 03:54:36;;;;;;;43.95;9.57;;;;;;;-146.27;97.99;41583.78;5097053;28;20038;-70
2024/03/13 03:57:01;;;;;;;36.70;9.63;;;;;;;-146.27;97.54;41569.84;5104288;28;20066;-73
2024/03/13 03:59:27;;;;;;;42.75;9.43;;;;;;;-146.27;98.07;41585.75;5100361;28;20055;-71
2024/03/13 04:01:52;;;;;;;47.85;7.88;;;;;;;-146.27;97.98;41601.66;5078239;28;20029;-71
2024/03/13 04:04:18;;;;;;;37.70;9.05;;;;;;;-146.27;98.24;41599.69;5077185;28;20073;-71
2024/03/13 04:06:43;;;;;;;37.95;8.45;;;;;;;-146.27;98.04;41581.78;5084686;28;20035;-70
2024/03/13 04:09:15;;;;;;;43.03;8.63;;;;;;;-146.27;97.98;41621.56;5086819;28;20107;-71
2024/03/13 04:11:42;;;;;;;36.38;8.70;;;;;;;-146.27;98.38;41619.56;5083414;28;20094;-70
2024/03/13 04:14:09;;;;;;;46.72;8.50;;;;;;;-146.27;97.96;41607.63;5085433;28;20054;-72
2024/03/13 04:16:35;;;;;;;40.63;8.35;;;;;;;-146.27;98.66;41681.19;5092641;28;20028;-71
2024/03/13 04:19:00;;;;;;;45.70;8.80;;;;;;;-146.27;97.94;41657.34;5091433;28;20098;-72
2024/03/13 04:21:26;;;;;;;38.00;9.80;;;;;;;-146.27;97.86;41589.75;5081677;28;20047;-71
2024/03/13 04:23:53;;;;;;;40.45;8.07;;;;;;;-146.27;97.44;41573.84;5090723;28;20042;-72
2024/03/13 04:26:18;;;;;;;44.88;8.07;;;;;;;-146.27;97.01;41601.66;5082368;28;20042;-72
2024/03/13 04:28:44;;;;;;;43.92;7.65;;;;;;;-146.27;97.82;41613.59;5082787;28;20032;-72
2024/03/13 04:31:13;;;;;;;50.72;7.30;;;;;;;-146.27;97.06;41587.75;5099036;28;20024;-70
2024/03/13 04:33:42;;;;;;;45.17;7.55;;;;;;;-146.27;97.10;41637.47;5071222;28;20735;-71
2024/03/13 04:36:08;;;;;;;48.33;7.25;;;;;;;-146.27;98.10;41585.75;5089729;28;20031;-70
2024/03/13 04:38:33;;;;;;;56.83;7.30;;;;;;;-146.27;97.75;41611.59;5085375;28;20027;-72
2024/03/13 04:40:59;;;;;;;44.72;8.15;;;;;;;-146.27;97.24;41629.50;5089829;28;20040;-70
2024/03/13 04:43:27;;;;;;;40.40;7.57;;;;;;;-146.27;97.64;41613.59;5076792;28;20425;-70
2024/03/13 04:45:53;;;;;;;42.90;6.20;;;;;;;-146.27;97.32;41605.66;5089924;28;20019;-71
2024/03/13 04:48:19;;;;;;;38.03;6.75;;;;;;;-146.27;97.63;41585.75;5104346;28;20034;-72
2024/03/13 04:50:44;;;;;;;42.72;6.25;;;;;;;-146.27;97.29;41641.44;5108257;28;20032;-73
2024/03/13 04:53:10;;;;;;;36.90;6.88;;;;;;;-146.27;97.83;41563.88;5091351;28;20028;-71
2024/03/13 04:55:35;;;;;;;41.00;6.53;;;;;;;-146.27;97.28;41557.94;5085294;28;20434;-71
2024/03/13 04:58:01;;;;;;;38.10;5.85;;;;;;;-146.27;98.07;41593.72;5086634;28;20688;-73
2024/03/13 05:00:26;;;;;;;45.88;7.53;;;;;;;-146.27;98.04;41621.56;5084459;28;20043;-71
2024/03/13 05:02:52;;;;;;;45.15;7.72;;;;;;;-146.27;97.13;41593.72;5092603;28;20027;-71
2024/03/13 05:05:18;;;;;;;40.97;7.50;;;;;;;-146.27;97.35;41595.69;5082036;28;20028;-71
2024/03/13 05:07:43;;;;;;;33.17;5.55;;;;;;;-146.27;98.07;41581.78;5088443;28;20043;-70
2024/03/13 05:10:10;;;;;;;45.17;7.22;;;;;;;-146.27;97.42;41551.97;5090597;28;20078;-70
2024/03/13 05:12:38;;;;;;;40.78;6.28;;;;;;;-146.27;97.22;41585.75;5088988;28;20033;-70
2024/03/13 05:15:05;;;;;;;37.38;5.60;;;;;;;-146.27;98.12;41639.44;5084806;28;20080;-71
2024/03/13 05:17:31;;;;;;;31.45;6.15;;;;;;;-146.27;97.46;41553.94;5087413;28;20019;-70
2024/03/13 05:19:59;;;;;;;47.10;6.10;;;;;;;-146.27;96.79;41470.44;5091979;28;20057;-71
2024/03/13 05:22:29;;;;;;;42.42;5.75;;;;;;;-146.27;96.92;41569.84;5088902;28;20024;-71
2024/03/13 05:24:58;;;;;;;34.58;5.40;;;;;;;-146.27;97.47;41621.56;5097478;28;20059;-71
2024/03/13 05:27:24;;;;;;;39.35;7.00;;;;;;;-146.27;96.82;41522.13;5082494;28;20488;-72
2024/03/13 05:29:50;;;;;;;39.42;6.57;;;;;;;-146.27;97.33;41613.59;5099428;28;20115;-72
2024/03/13 05:32:16;;;;;;;30.20;5.63;;;;;;;-146.27;97.39;41609.63;5089558;28;20024;-72
2024/03/13 05:34:41;;;;;;;29.02;4.78;;;;;;;-146.27;97.13;41510.22;5086299;28;20024;-70
2024/03/13 05:37:10;;;;;;;45.33;6.43;;;;;;;-146.27;96.57;41522.13;5079502;28;20051;-71
2024/03/13 05:39:35;;;;;;;34.22;5.72;;;;;;;-146.27;96.73;41629.50;5084296;28;20647;-72
2024/03/13 05:42:01;;;;;;;33.08;4.35;;;;;;;-146.27;96.47;41538.03;5094727;28;20111;-73
2024/03/13 05:44:27;;;;;;;28.65;5.75;;;;;;;-146.27;96.46;41514.19;5094684;28;20132;-72
2024/03/13 05:46:54;;;;;;;44.03;7.07;;;;;;;-146.27;96.78;41597.69;5087730;28;20035;-72
2024/03/13 05:49:19;;;;;;;24.20;7.47;;;;;;;-146.27;97.21;41645.41;5089748;28;20029;-73
2024/03/13 05:51:45;;;;;;;35.47;7.25;;;;;;;-146.27;97.42;41637.47;5088861;28;20028;-71
2024/03/13 05:54:10;;;;;;;25.50;6.78;;;;;;;-146.27;97.14;41585.75;5089127;28;20476;-72
2024/03/13 05:56:37;;;;;;;43.15;7.07;;;;;;;-146.27;97.05;41587.75;5090101;28;20489;-71
2024/03/13 05:59:05;;;;;;;39.83;6.55;;;;;;;-146.27;96.45;41577.81;5083627;28;20511;-72
2024/03/13 06:01:31;;;;;;;41.75;6.93;;;;;;;-146.27;96.20;41546.00;5087359;28;20023;-72
2024/03/13 06:03:58;;;;;;;41.92;7.35;;;;;;;-146.27;96.12;41581.78;5085786;28;20046;-72
2024/03/13 06:06:24;;;;;;;53.92;9.40;;;;;;;-146.27;96.22;41633.47;5085719;28;20027;-71
2024/03/13 06:08:49;;;;;;;36.92;8.48;;;;;;;-146.27;97.50;41663.31;5086924;28;20454;-72
2024/03/13 06:11:18;;;;;;;45.00;9.13;;;;;;;-146.27;96.80;41657.34;5086359;28;20165;-73
2024/03/13 06:13:44;;;;;;;40.17;7.78;;;;;;;-146.27;96.38;41649.38;5081473;28;20020;-73
2024/03/13 06:16:10;;;;;;;38.92;7.93;;;;;;;-146.27;96.93;41709.03;5082413;28;20024;-72
2024/03/13 06:18:35;;;;;;;35.72;7.57;;;;;;;-146.27;96.68;41641.44;5070188;28;20016;-73
2024/03/13 06:21:03;;;;;;;38.53;7.88;;;;;;;-146.27;97.63;41740.84;5084705;28;20111;-73
2024/03/13 06:23:29;;;;;;;43.58;8.52;;;;;;;-146.27;97.25;41661.31;5087532;28;20115;-73
2024/03/13 06:25:57;;;;;;;36.20;7.85;;;;;;;-146.27;97.02;41732.91;5085703;28;20049;-73
2024/03/13 06:31:06;;;;;;;44.35;8.30;;;;;;;-146.27;97.26;41774.66;5096419;28;20034;-72
2024/03/13 06:33:32;;;;;;;36.30;8.90;;;;;;;-146.27;97.46;41720.97;5098249;28;20028;-72
2024/03/13 06:35:57;;;;;;;42.30;8.18;;;;;;;-146.27;97.31;41810.44;5080378;28;20496;-73
2024/03/13 06:38:23;;;;;;;39.28;7.80;;;;;;;-146.27;97.35;41691.16;5097186;28;20111;-72
2024/03/13 06:40:48;;;;;;;32.55;7.28;;;;;;;-146.27;96.58;41669.28;5085421;28;20111;-74
2024/03/13 06:43:14;;;;;;;27.05;7.68;;;;;;;-146.27;96.61;41728.91;5097973;28;20016;-74
2024/03/13 06:45:45;;;;;;;39.63;8.15;;;;;;;-146.27;96.39;41720.97;5090617;28;20020;-73
2024/03/13 06:48:12;;;;;;;45.80;7.65;;;;;;;-146.27;97.12;41854.19;5094866;28;20114;-74
2024/03/13 06:50:38;;;;;;;36.88;8.32;;;;;;;-146.27;96.97;41784.59;5093318;28;20194;-70
2024/03/13 06:53:03;;;;;;;32.67;8.35;;;;;;;-146.27;97.41;41840.28;5092585;28;20059;-70
2024/03/13 06:55:28;;;;;;;40.10;7.65;;;;;;;-146.27;97.56;41893.97;5092696;28;20578;-71
2024/03/13 06:57:54;;;;;;;44.33;8.02;;;;;;;-146.27;97.88;41915.84;5073415;28;20039;-75
2024/03/13 07:00:19;;;;;;;27.15;7.72;;;;;;;-146.27;97.29;41836.28;5082749;28;20028;-74
2024/03/13 07:02:44;;;;;;;42.40;8.57;;;;;;;-146.27;97.29;41852.19;5091709;28;20340;-74
2024/03/13 07:05:12;;;;;;;26.80;6.47;;;;;;;-146.27;97.78;41919.81;5082655;28;20094;-74
2024/03/13 07:07:40;;;;;;;34.72;7.72;;;;;;;-146.27;97.43;41947.66;5090388;28;20042;-72
2024/03/13 07:10:10;;;;;;;34.78;7.55;;;;;;;-146.27;97.25;41963.56;5094270;28;20024;-73
2024/03/13 07:12:39;;;;;;;40.00;7.38;;;;;;;-146.27;97.13;41975.50;5089397;28;20050;-73
2024/03/13 07:15:09;;;;;;;30.20;6.55;;;;;;;-146.27;96.77;41925.78;5087035;28;20039;-74
2024/03/13 07:17:35;;;;;;;32.47;7.65;;;;;;;-146.27;96.17;42007.31;5090518;28;20028;-74
2024/03/13 07:20:00;;;;;;;33.67;7.15;;;;;;;-146.27;96.81;42051.06;5093320;28;20105;-73
2024/03/13 07:22:26;;;;;;;42.53;7.40;;;;;;;-146.27;96.26;42084.84;5089777;28;20526;-73
2024/03/13 07:24:51;;;;;;;42.63;7.18;;;;;;;-146.27;96.19;42166.38;5091101;28;20526;-74
2024/03/13 07:27:16;;;;;;;39.03;7.65;;;;;;;-146.27;98.33;42192.25;5098142;28;20230;-73
2024/03/13 07:29:42;;;;;;;37.00;8.10;;;;;;;-146.27;98.19;42210.13;5100353;28;20376;-72
2024/03/13 07:32:07;;;;;;;49.13;8.50;;;;;;;-146.27;97.13;42162.41;5094576;28;20035;-73
2024/03/13 07:34:33;;;;;;;43.38;7.82;;;;;;;-146.27;96.66;42228.03;5111556;28;20123;-73
2024/03/13 07:36:58;;;;;;;26.35;7.80;;;;;;;-146.27;96.22;42279.75;5092128;28;20020;-77
2024/03/13 07:39:25;;;;;;;28.98;7.60;;;;;;;-146.27;96.30;42361.28;5083869;28;20529;-76
2024/03/13 07:41:51;;;;;;;31.02;7.10;;;;;;;-146.27;96.53;42428.88;5088814;28;20099;-76
2024/03/13 07:44:17;;;;;;;37.63;8.00;;;;;;;-146.27;96.49;42331.44;5088393;28;20020;-75
2024/03/13 07:46:42;;;;;;;38.78;7.45;;;;;;;-146.27;95.45;42337.41;5087833;28;20059;-77
2024/03/13 07:49:08;;;;;;;33.72;7.80;;;;;;;-146.27;95.26;42291.66;5084348;28;20050;-75
2024/03/13 07:51:33;;;;;;;23.70;6.13;;;;;;;-146.27;95.95;42452.75;5091769;28;20020;-75
2024/03/13 07:53:58;;;;;;;34.63;9.13;;;;;;;-146.27;96.46;42472.66;5091229;28;20484;-75
2024/03/13 07:56:24;;;;;;;34.42;6.82;;;;;;;-146.27;95.79;42373.22;5088481;28;20027;-76
2024/03/13 07:58:50;;;;;;;32.40;8.00;;;;;;;-146.27;95.59;42508.44;5088963;28;20034;-76
2024/03/13 08:01:16;;;;;;;31.55;7.28;;;;;;;-146.27;96.35;42498.50;5089678;28;20362;-76
2024/03/13 08:03:41;;;;;;;40.17;6.45;;;;;;;-146.27;96.32;42558.16;5083710;28;20020;-75
2024/03/13 08:06:07;;;;;;;27.13;5.90;;;;;;;-146.27;96.05;42472.66;5090681;28;20040;-75
2024/03/13 08:08:33;;;;;;;26.70;6.68;;;;;;;-146.27;95.23;42434.84;5073294;28;20150;-73
2024/03/13 08:10:59;;;;;;;25.73;6.32;;;;;;;-146.27;95.47;42520.38;5092144;28;20478;-73
2024/03/13 08:13:25;;;;;;;32.15;6.68;;;;;;;-146.27;94.54;42496.50;5091907;28;20081;-72
2024/03/13 08:15:51;;;;;;;32.08;5.78;;;;;;;-146.27;95.40;42524.34;5090763;28;20028;-72
2024/03/13 08:18:19;;;;;;;30.42;7.18;;;;;;;-146.27;95.07;42480.59;5092005;28;20024;-72
2024/03/13 08:20:51;;;;;;;27.88;6.30;;;;;;;-146.27;94.67;42448.78;5090909;28;20077;-74
2024/03/13 08:23:16;;;;;;;29.95;6.55;;;;;;;-146.27;95.37;42576.06;5094569;28;20106;-72
2024/03/13 08:25:43;;;;;;;27.60;6.30;;;;;;;-146.27;95.26;42496.50;5090328;28;20460;-73
2024/03/13 08:28:08;;;;;;;21.30;6.20;;;;;;;-146.27;94.54;42454.75;5089477;28;20499;-72
2024/03/13 08:30:34;;;;;;;26.15;5.82;;;;;;;-146.27;94.80;42450.75;5089314;28;20047;-72
2024/03/13 08:33:00;;;;;;;27.17;6.03;;;;;;;-146.27;94.89;42468.66;5091139;28;20032;-71
2024/03/13 08:35:29;;;;;;;24.55;5.90;;;;;;;-146.27;94.07;42432.88;5091404;28;20035;-72
2024/03/13 08:37:59;;;;;;;27.65;6.32;;;;;;;-146.27;94.75;42540.25;5090707;28;20069;-68
2024/03/13 08:40:26;;;;;;;22.17;5.53;;;;;;;-146.27;94.35;42522.38;5090772;28;20068;-69
2024/03/13 08:42:51;;;;;;;27.27;6.18;;;;;;;-146.27;94.05;42500.47;5090230;28;20024;-69
2024/03/13 08:45:17;;;;;;;23.73;4.95;;;;;;;-146.27;93.56;42401.06;5091046;28;20499;-69
2024/03/13 08:47:43;;;;;;;26.90;5.10;;;;;;;-146.27;93.39;42401.06;5090633;28;20030;-69
2024/03/13 08:50:08;;;;;;;25.27;7.15;;;;;;;-146.27;93.33;42448.78;5089121;28;20031;-71
2024/03/13 08:52:36;;;;;;;29.30;5.05;;;;;;;-146.27;94.79;42528.31;5086543;28;21711;-69
2024/03/13 08:55:05;;;;;;;22.00;5.72;;;;;;;-146.27;94.38;42572.09;5088565;28;20028;-69
2024/03/13 08:57:30;;;;;;;13.02;4.55;;;;;;;-146.27;94.09;42500.47;5090474;28;20028;-71
2024/03/13 08:59:57;;;;;;;22.05;5.70;;;;;;;-146.27;93.29;42385.13;5089248;28;20027;-70
2024/03/13 09:02:23;;;;;;;16.88;4.47;;;;;;;-146.27;93.63;42508.44;5096997;28;20403;-70
2024/03/13 09:04:49;;;;;;;16.60;4.45;;;;;;;-146.27;93.31;42420.94;5090048;28;20051;-68
2024/03/13 09:07:14;;;;;;;28.13;5.88;;;;;;;-146.27;94.28;42586.00;5095127;28;20428;-70
2024/03/13 09:09:39;;;;;;;17.27;4.53;;;;;;;-146.27;93.37;42524.34;5089952;28;20115;-71
2024/03/13 09:12:13;;;;;;;22.58;5.13;;;;;;;-146.27;92.43;42424.91;5088608;28;20028;-69
2024/03/13 09:14:38;;;;;;;;;;;;;;;-146.27;93.97;42564.13;5089210;28;20028;-71
2024/03/13 09:17:08;;;;;;;25.42;4.75;;;;;;;-146.27;93.88;42544.25;5089124;28;19965;-70
2024/03/13 09:19:37;;;;;;;17.80;4.15;;;;;;;-146.27;92.74;42482.59;5090959;28;20039;-71
2024/03/13 09:22:07;;;;;;;23.90;5.28;;;;;;;-146.27;92.55;42436.84;5086592;28;20028;-69
2024/03/13 09:24:32;;;;;;;29.05;4.60;;;;;;;-146.27;91.98;42432.88;5076260;28;20404;-70
2024/03/13 09:26:58;;;;;;;26.23;6.25;;;;;;;-146.27;92.00;42468.66;5090036;28;20019;-69
2024/03/13 09:29:24;;;;;;;22.77;5.10;;;;;;;-146.27;91.94;42397.06;5088775;28;20044;-68
2024/03/13 09:31:50;;;;;;;16.70;4.50;;;;;;;-146.27;91.68;42496.50;5088651;28;20391;-70
2024/03/13 09:34:16;;;;;;;21.75;4.30;;;;;;;-146.27;92.26;42420.94;5090152;28;20494;-72
2024/03/13 09:36:41;;;;;;;23.63;4.93;;;;;;;-146.27;92.73;42452.75;5089084;28;20111;-72
2024/03/13 09:39:06;;;;;;;20.95;5.05;;;;;;;-146.27;92.50;42438.84;5087027;28;20032;-70
2024/03/13 09:41:32;;;;;;;24.13;5.40;;;;;;;-146.27;92.09;42484.56;5089444;28;20549;-69
2024/03/13 09:43:59;;;;;;;28.33;5.45;;;;;;;-146.27;92.41;42480.59;5080425;28;20669;-72
2024/03/13 09:46:27;;;;;;;19.02;4.57;;;;;;;-146.27;92.56;42420.94;5088687;28;20039;-69
2024/03/13 09:48:54;;;;;;;19.50;5.10;;;;;;;-146.27;92.15;42536.28;5081129;28;20067;-69
2024/03/13 09:51:22;;;;;;;25.90;5.68;;;;;;;-146.27;92.99;42552.19;5089881;28;20093;-71
2024/03/13 09:53:49;;;;;;;18.80;5.75;;;;;;;-146.27;92.02;42436.84;5089854;28;20036;-70
2024/03/13 09:56:17;;;;;;;18.15;4.93;;;;;;;-146.27;91.65;42470.66;5087606;28;20141;-69
2024/03/13 09:58:49;;;;;;;23.17;4.93;;;;;;;-146.27;91.45;42422.94;5089748;28;20376;-70
2024/03/13 10:01:38;;;;;;;17.45;4.78;;;;;;;-146.27;92.00;42560.16;5080617;28;20488;-68
2024/03/13 10:04:10;;;;;;;13.52;4.70;;;;;;;-146.27;92.12;42542.25;5083096;28;20054;-71
2024/03/13 10:06:41;;;;;;;22.92;5.45;;;;;;;-146.27;91.27;42526.34;5083259;28;20082;-70
2024/03/13 10:09:17;;;;;;;21.48;5.18;;;;;;;-146.27;91.97;42633.72;5106540;28;20059;-68
2024/03/13 10:11:46;;;;;;;19.77;4.07;;;;;;;-146.27;91.01;42468.66;5093163;28;20043;-70
2024/03/13 10:14:12;;;;;;;18.77;3.95;;;;;;;-146.27;90.81;42480.59;5088912;28;20119;-70
2024/03/13 10:16:42;;;;;;;20.05;4.00;;;;;;;-146.27;90.99;42556.16;5098787;28;20056;-71
2024/03/13 10:19:12;;;;;;;22.35;4.15;;;;;;;-146.27;90.40;42542.25;5074295;28;20032;-68
2024/03/13 10:21:40;;;;;;;24.25;3.72;;;;;;;-146.27;90.88;42524.34;5090351;28;20016;-68
2024/03/13 10:24:08;;;;;;;23.33;4.57;;;;;;;-146.27;89.90;42544.25;5088195;28;20032;-69
2024/03/13 10:26:40;;;;;;;18.40;2.83;;;;;;;-146.27;89.48;42486.56;5089357;28;20039;-72
2024/03/13 10:29:10;;;;;;;15.25;4.10;;;;;;;-146.27;89.59;42623.78;5075675;28;20106;-73
2024/03/13 10:31:38;;;;;;;14.98;3.25;;;;;;;-146.27;89.57;42625.78;5086291;28;20028;-73
2024/03/13 10:34:04;;;;;;;10.77;2.15;;;;;;;-146.27;89.29;42713.28;5088779;28;20046;-73
2024/03/13 10:36:31;;;;;;;14.77;2.92;;;;;;;-146.27;89.00;42683.47;5089295;28;20023;-74
2024/03/13 10:38:57;;;;;;;13.52;2.35;;;;;;;-146.27;88.03;42711.31;5086895;28;20039;-73
2024/03/13 10:41:22;;;;;;;11.63;1.58;;;;;;;-146.27;87.54;42701.34;5089817;28;20035;-75
2024/03/13 10:43:47;;;;;;;11.63;1.60;;;;;;;-146.27;86.66;42767.00;5089949;28;20519;-76
2024/03/13 10:46:13;;;;;;;9.77;2.20;;;;;;;-146.27;86.50;42798.81;5090018;28;20478;-74
2024/03/13 10:48:41;;;;;;;8.15;1.60;;;;;;;-146.27;86.06;42846.53;5073751;28;20041;-75
2024/03/13 10:51:12;;;;;;;6.05;1.58;;;;;;;-146.27;86.18;42767.00;5086056;28;20136;-76
2024/03/13 10:53:37;;;;;;;10.82;1.80;;;;;;;-146.27;85.83;42786.88;5089418;28;20024;-76
2024/03/13 10:56:04;;;;;;;6.75;1.10;;;;;;;-146.27;85.77;42965.88;5089992;28;20038;-75
2024/03/13 10:58:31;;;;;;;9.20;1.70;;;;;;;-146.27;84.94;42800.81;5089179;28;20024;-76
2024/03/13 11:00:56;;;;;;;11.00;1.33;;;;;;;-146.27;84.56;42751.06;5084590;28;20032;-78
2024/03/13 11:03:22;;;;;;;6.47;1.67;;;;;;;-146.27;85.02;42834.59;5102153;28;20472;-77
2024/03/13 11:05:49;;;;;;;11.88;1.40;;;;;;;-146.27;84.88;42930.09;5088799;28;20519;-75
2024/03/13 11:08:14;;;;;;;9.13;1.77;;;;;;;-146.27;84.61;42920.13;5091947;28;20477;-76
2024/03/13 11:10:40;;;;;;;5.55;1.48;;;;;;;-146.27;84.90;42936.03;5086670;28;20020;-76
2024/03/13 11:13:06;;;;;;;12.15;2.67;;;;;;;-146.27;85.89;42912.19;5087831;28;20561;-76
2024/03/13 11:15:37;;;;;;;8.02;1.70;;;;;;;-146.27;85.56;42822.69;5099273;28;20016;-76
2024/03/13 11:18:04;;;;;;;11.07;2.55;;;;;;;-146.27;85.73;42804.78;5087082;28;20039;-75
2024/03/13 11:20:58;;;;;;;19.58;2.80;;;;;;;-146.27;85.33;42818.69;5107117;28;20031;-75
2024/03/13 11:23:29;;;;;;;12.85;2.50;;;;;;;-146.27;86.21;42902.22;5095243;28;20323;-74
2024/03/13 11:26:03;;;;;;;11.38;2.10;;;;;;;-146.27;86.01;42838.59;5104714;28;20040;-75
2024/03/13 11:28:31;;;;;;;5.88;2.13;;;;;;;-146.27;86.67;42914.16;5097362;28;20070;-73
2024/03/13 11:31:00;;;;;;;15.38;2.50;;;;;;;-146.27;86.89;42991.75;5091375;28;20114;-75
2024/03/13 11:33:26;;;;;;;15.70;2.67;;;;;;;-146.27;86.36;42961.91;5102010;28;20108;-74
2024/03/13 11:35:56;;;;;;;11.13;2.20;;;;;;;-146.27;86.60;43027.53;5096768;28;20119;-75
2024/03/13 11:38:22;;;;;;;11.45;2.38;;;;;;;-146.27;85.92;42886.31;5089812;28;20361;-71
2024/03/13 11:40:49;;;;;;;14.25;1.95;;;;;;;-146.27;85.81;42914.16;5096206;28;20028;-72